sensor_id;sensor_type;location;lat;lon;timestamp;P1;durP1;ratioP1;P2;durP2;ratioP2
2944;SDS011;1482;51.398;7.128;2022-09-09T00:00:38;3.03;;;1.23;;
2944;SDS011;1482;51.398;7.128;2022-09-09T00:03:18;2.03;;;1.17;;
2944;SDS011;1482;51.398;7.128;2022-09-09T00:05:58;3.13;;;1.63;;
2944;SDS011;1482;51.398;7.128;2022-09-09T00:08:33;2.97;;;1.67;;
2944;SDS011;1482;51.398;7.128;2022-09-09T00:11:15;3.33;;;1.23;;
2944;SDS011;1482;51.398;7.128;2022-09-09T00:13:52;2.23;;;1.57;;
2944;SDS011;1482;51.398;7.128;2022-09-09T00:16:22;3.87;;;1.30;;
2944;SDS011;1482;51.398;7.128;2022-09-09T00:18:55;3.93;;;1.33;;
2944;SDS011;1482;51.398;7.128;2022-09-09T00:21:34;4.83;;;1.30;;
2944;SDS011;1482;51.398;7.128;2022-09-09T00:24:08;2.33;;;1.50;;
2944;SDS011;1482;51.398;7.128;2022-09-09T00:26:40;4.00;;;1.33;;
2944;SDS011;1482;51.398;7.128;2022-09-09T00:31:47;1.80;;;1.27;;
2944;SDS011;1482;51.398;7.128;2022-09-09T00:34:22;1.97;;;1.30;;
2944;SDS011;1482;51.398;7.128;2022-09-09T00:36:50;5.40;;;1.43;;
2944;SDS011;1482;51.398;7.128;2022-09-09T00:44:34;5.53;;;1.60;;
2944;SDS011;1482;51.398;7.128;2022-09-09T00:57:46;8.07;;;1.90;;
2944;SDS011;1482;51.398;7.128;2022-09-09T01:03:10;3.50;;;2.20;;
2944;SDS011;1482;51.398;7.128;2022-09-09T01:11:29;3.63;;;2.83;;
2944;SDS011;1482;51.398;7.128;2022-09-09T01:16:48;5.87;;;2.83;;
2944;SDS011;1482;51.398;7.128;2022-09-09T01:19:18;3.37;;;3.07;;
2944;SDS011;1482;51.398;7.128;2022-09-09T01:22:02;3.27;;;3.00;;
2944;SDS011;1482;51.398;7.128;2022-09-09T01:24:42;3.90;;;3.50;;
2944;SDS011;1482;51.398;7.128;2022-09-09T01:27:38;9.57;;;4.47;;
2944;SDS011;1482;51.398;7.128;2022-09-09T01:30:10;4.83;;;4.10;;
2944;SDS011;1482;51.398;7.128;2022-09-09T01:32:42;4.67;;;4.37;;
2944;SDS011;1482;51.398;7.128;2022-09-09T01:35:14;6.07;;;4.70;;
2944;SDS011;1482;51.398;7.128;2022-09-09T01:37:43;5.23;;;4.70;;
2944;SDS011;1482;51.398;7.128;2022-09-09T01:40:09;4.57;;;4.17;;
2944;SDS011;1482;51.398;7.128;2022-09-09T01:42:34;5.93;;;4.37;;
2944;SDS011;1482;51.398;7.128;2022-09-09T01:45:00;9.80;;;4.23;;
2944;SDS011;1482;51.398;7.128;2022-09-09T01:47:26;4.40;;;4.00;;
2944;SDS011;1482;51.398;7.128;2022-09-09T01:49:52;8.73;;;4.80;;
2944;SDS011;1482;51.398;7.128;2022-09-09T01:52:17;4.30;;;3.43;;
2944;SDS011;1482;51.398;7.128;2022-09-09T01:54:43;6.60;;;3.90;;
2944;SDS011;1482;51.398;7.128;2022-09-09T01:57:11;3.83;;;3.50;;
2944;SDS011;1482;51.398;7.128;2022-09-09T02:07:57;6.70;;;4.23;;
2944;SDS011;1482;51.398;7.128;2022-09-09T02:10:50;8.83;;;4.87;;
2944;SDS011;1482;51.398;7.128;2022-09-09T02:13:24;5.43;;;3.83;;
2944;SDS011;1482;51.398;7.128;2022-09-09T02:16:07;7.67;;;4.23;;
2944;SDS011;1482;51.398;7.128;2022-09-09T02:18:45;4.67;;;3.60;;
2944;SDS011;1482;51.398;7.128;2022-09-09T02:21:15;7.13;;;4.37;;
2944;SDS011;1482;51.398;7.128;2022-09-09T02:23:42;10.70;;;4.30;;
2944;SDS011;1482;51.398;7.128;2022-09-09T02:26:12;6.80;;;4.20;;
2944;SDS011;1482;51.398;7.128;2022-09-09T02:28:44;10.10;;;4.60;;
2944;SDS011;1482;51.398;7.128;2022-09-09T02:31:11;4.63;;;3.33;;
2944;SDS011;1482;51.398;7.128;2022-09-09T02:33:41;4.67;;;3.40;;
2944;SDS011;1482;51.398;7.128;2022-09-09T02:36:09;5.87;;;3.70;;
2944;SDS011;1482;51.398;7.128;2022-09-09T02:38:38;5.00;;;3.50;;
2944;SDS011;1482;51.398;7.128;2022-09-09T02:41:10;9.67;;;4.27;;
2944;SDS011;1482;51.398;7.128;2022-09-09T02:43:36;6.80;;;4.30;;
2944;SDS011;1482;51.398;7.128;2022-09-09T02:46:12;6.73;;;3.67;;
2944;SDS011;1482;51.398;7.128;2022-09-09T02:49:09;9.87;;;3.67;;
2944;SDS011;1482;51.398;7.128;2022-09-09T02:51:51;12.60;;;5.93;;
2944;SDS011;1482;51.398;7.128;2022-09-09T02:54:34;5.93;;;3.70;;
2944;SDS011;1482;51.398;7.128;2022-09-09T02:57:12;9.03;;;3.70;;
2944;SDS011;1482;51.398;7.128;2022-09-09T02:59:42;8.80;;;3.27;;
2944;SDS011;1482;51.398;7.128;2022-09-09T03:02:09;7.70;;;4.70;;
2944;SDS011;1482;51.398;7.128;2022-09-09T03:04:36;5.50;;;3.43;;
2944;SDS011;1482;51.398;7.128;2022-09-09T03:07:02;5.20;;;2.77;;
2944;SDS011;1482;51.398;7.128;2022-09-09T03:09:28;7.83;;;3.10;;
2944;SDS011;1482;51.398;7.128;2022-09-09T03:11:54;4.43;;;3.00;;
2944;SDS011;1482;51.398;7.128;2022-09-09T03:14:20;3.53;;;2.53;;
2944;SDS011;1482;51.398;7.128;2022-09-09T03:16:49;3.43;;;2.80;;
2944;SDS011;1482;51.398;7.128;2022-09-09T03:19:15;7.43;;;2.70;;
2944;SDS011;1482;51.398;7.128;2022-09-09T03:21:41;7.93;;;2.73;;
2944;SDS011;1482;51.398;7.128;2022-09-09T03:24:06;8.00;;;3.40;;
2944;SDS011;1482;51.398;7.128;2022-09-09T03:26:32;9.97;;;2.90;;
2944;SDS011;1482;51.398;7.128;2022-09-09T03:28:57;3.50;;;2.53;;
2944;SDS011;1482;51.398;7.128;2022-09-09T03:31:25;8.57;;;2.77;;
2944;SDS011;1482;51.398;7.128;2022-09-09T03:33:54;5.70;;;2.40;;
2944;SDS011;1482;51.398;7.128;2022-09-09T03:36:23;4.63;;;3.47;;
2944;SDS011;1482;51.398;7.128;2022-09-09T03:38:48;3.47;;;2.53;;
2944;SDS011;1482;51.398;7.128;2022-09-09T03:41:15;5.33;;;2.33;;
2944;SDS011;1482;51.398;7.128;2022-09-09T03:43:41;4.80;;;2.17;;
2944;SDS011;1482;51.398;7.128;2022-09-09T03:46:06;10.57;;;3.40;;
2944;SDS011;1482;51.398;7.128;2022-09-09T03:48:32;3.03;;;2.73;;
2944;SDS011;1482;51.398;7.128;2022-09-09T03:50:58;5.57;;;3.23;;
2944;SDS011;1482;51.398;7.128;2022-09-09T03:53:26;10.33;;;4.00;;
2944;SDS011;1482;51.398;7.128;2022-09-09T03:55:53;6.67;;;2.77;;
2944;SDS011;1482;51.398;7.128;2022-09-09T03:58:21;6.67;;;4.00;;
2944;SDS011;1482;51.398;7.128;2022-09-09T04:00:59;13.73;;;2.87;;
2944;SDS011;1482;51.398;7.128;2022-09-09T04:03:26;4.93;;;3.43;;
2944;SDS011;1482;51.398;7.128;2022-09-09T04:05:53;3.93;;;2.60;;
2944;SDS011;1482;51.398;7.128;2022-09-09T04:08:20;5.87;;;2.83;;
2944;SDS011;1482;51.398;7.128;2022-09-09T04:10:49;4.57;;;2.67;;
2944;SDS011;1482;51.398;7.128;2022-09-09T04:13:15;5.00;;;2.60;;
2944;SDS011;1482;51.398;7.128;2022-09-09T04:15:42;4.40;;;2.60;;
2944;SDS011;1482;51.398;7.128;2022-09-09T04:18:10;4.83;;;2.60;;
2944;SDS011;1482;51.398;7.128;2022-09-09T04:20:37;8.50;;;2.47;;
2944;SDS011;1482;51.398;7.128;2022-09-09T04:23:03;5.13;;;2.40;;
2944;SDS011;1482;51.398;7.128;2022-09-09T04:25:30;5.87;;;3.57;;
2944;SDS011;1482;51.398;7.128;2022-09-09T04:27:56;3.07;;;2.73;;
2944;SDS011;1482;51.398;7.128;2022-09-09T04:30:23;4.70;;;3.37;;
2944;SDS011;1482;51.398;7.128;2022-09-09T04:32:49;5.87;;;2.83;;
2944;SDS011;1482;51.398;7.128;2022-09-09T04:35:14;2.83;;;2.63;;
2944;SDS011;1482;51.398;7.128;2022-09-09T04:37:40;4.80;;;3.33;;
2944;SDS011;1482;51.398;7.128;2022-09-09T04:40:06;5.47;;;3.43;;
2944;SDS011;1482;51.398;7.128;2022-09-09T04:42:37;11.57;;;3.10;;
2944;SDS011;1482;51.398;7.128;2022-09-09T04:45:04;8.03;;;3.10;;
2944;SDS011;1482;51.398;7.128;2022-09-09T04:47:31;6.80;;;2.93;;
2944;SDS011;1482;51.398;7.128;2022-09-09T04:49:57;2.97;;;2.70;;
2944;SDS011;1482;51.398;7.128;2022-09-09T04:52:23;10.10;;;2.67;;
2944;SDS011;1482;51.398;7.128;2022-09-09T04:54:48;3.30;;;2.90;;
2944;SDS011;1482;51.398;7.128;2022-09-09T04:57:14;4.23;;;2.60;;
2944;SDS011;1482;51.398;7.128;2022-09-09T04:59:39;8.93;;;3.10;;
2944;SDS011;1482;51.398;7.128;2022-09-09T05:02:05;3.77;;;2.73;;
2944;SDS011;1482;51.398;7.128;2022-09-09T05:04:31;2.83;;;2.63;;
2944;SDS011;1482;51.398;7.128;2022-09-09T05:06:58;5.17;;;3.03;;
2944;SDS011;1482;51.398;7.128;2022-09-09T05:09:23;3.37;;;2.90;;
2944;SDS011;1482;51.398;7.128;2022-09-09T05:11:49;7.03;;;3.00;;
2944;SDS011;1482;51.398;7.128;2022-09-09T05:14:15;12.00;;;2.87;;
2944;SDS011;1482;51.398;7.128;2022-09-09T05:16:41;10.80;;;2.60;;
2944;SDS011;1482;51.398;7.128;2022-09-09T05:19:09;6.43;;;3.00;;
2944;SDS011;1482;51.398;7.128;2022-09-09T05:21:34;6.00;;;4.00;;
2944;SDS011;1482;51.398;7.128;2022-09-09T05:24:00;6.20;;;2.57;;
2944;SDS011;1482;51.398;7.128;2022-09-09T05:26:25;9.90;;;4.33;;
2944;SDS011;1482;51.398;7.128;2022-09-09T05:28:51;3.90;;;2.77;;
2944;SDS011;1482;51.398;7.128;2022-09-09T05:31:17;3.57;;;2.70;;
2944;SDS011;1482;51.398;7.128;2022-09-09T05:33:44;7.70;;;3.17;;
2944;SDS011;1482;51.398;7.128;2022-09-09T05:36:16;4.10;;;2.43;;
2944;SDS011;1482;51.398;7.128;2022-09-09T05:38:43;8.17;;;3.10;;
2944;SDS011;1482;51.398;7.128;2022-09-09T05:41:09;6.73;;;3.10;;
2944;SDS011;1482;51.398;7.128;2022-09-09T05:43:36;6.67;;;3.60;;
2944;SDS011;1482;51.398;7.128;2022-09-09T05:48:36;11.03;;;2.90;;
2944;SDS011;1482;51.398;7.128;2022-09-09T05:51:07;5.47;;;3.30;;
2944;SDS011;1482;51.398;7.128;2022-09-09T05:53:37;6.80;;;2.60;;
2944;SDS011;1482;51.398;7.128;2022-09-09T05:56:05;4.00;;;3.10;;
2944;SDS011;1482;51.398;7.128;2022-09-09T05:58:32;3.47;;;2.50;;
2944;SDS011;1482;51.398;7.128;2022-09-09T06:01:02;4.87;;;2.60;;
2944;SDS011;1482;51.398;7.128;2022-09-09T06:03:34;5.10;;;2.90;;
2944;SDS011;1482;51.398;7.128;2022-09-09T06:06:00;7.27;;;2.63;;
2944;SDS011;1482;51.398;7.128;2022-09-09T06:08:30;4.50;;;2.97;;
2944;SDS011;1482;51.398;7.128;2022-09-09T06:11:03;6.80;;;3.00;;
2944;SDS011;1482;51.398;7.128;2022-09-09T06:13:30;8.13;;;2.77;;
2944;SDS011;1482;51.398;7.128;2022-09-09T06:15:56;8.07;;;2.33;;
2944;SDS011;1482;51.398;7.128;2022-09-09T06:18:23;7.07;;;2.73;;
2944;SDS011;1482;51.398;7.128;2022-09-09T06:23:25;5.10;;;2.27;;
2944;SDS011;1482;51.398;7.128;2022-09-09T06:25:52;5.10;;;2.83;;
2944;SDS011;1482;51.398;7.128;2022-09-09T06:28:30;8.60;;;2.70;;
2944;SDS011;1482;51.398;7.128;2022-09-09T06:30:57;4.00;;;2.20;;
2944;SDS011;1482;51.398;7.128;2022-09-09T06:33:26;15.70;;;4.80;;
2944;SDS011;1482;51.398;7.128;2022-09-09T06:35:55;6.10;;;2.50;;
2944;SDS011;1482;51.398;7.128;2022-09-09T06:38:22;7.17;;;2.60;;
2944;SDS011;1482;51.398;7.128;2022-09-09T06:40:54;7.77;;;2.33;;
2944;SDS011;1482;51.398;7.128;2022-09-09T06:43:21;8.33;;;1.93;;
2944;SDS011;1482;51.398;7.128;2022-09-09T06:45:54;7.13;;;2.40;;
2944;SDS011;1482;51.398;7.128;2022-09-09T06:48:21;6.87;;;2.23;;
2944;SDS011;1482;51.398;7.128;2022-09-09T06:50:47;14.33;;;3.30;;
2944;SDS011;1482;51.398;7.128;2022-09-09T06:53:16;3.50;;;1.63;;
2944;SDS011;1482;51.398;7.128;2022-09-09T06:55:43;9.80;;;2.90;;
2944;SDS011;1482;51.398;7.128;2022-09-09T06:58:10;3.13;;;1.77;;
2944;SDS011;1482;51.398;7.128;2022-09-09T07:00:35;5.90;;;1.80;;
2944;SDS011;1482;51.398;7.128;2022-09-09T07:03:03;3.27;;;2.00;;
2944;SDS011;1482;51.398;7.128;2022-09-09T07:05:30;4.30;;;2.53;;
2944;SDS011;1482;51.398;7.128;2022-09-09T07:07:56;8.90;;;3.00;;
2944;SDS011;1482;51.398;7.128;2022-09-09T07:10:22;4.60;;;2.33;;
2944;SDS011;1482;51.398;7.128;2022-09-09T07:12:51;3.17;;;2.00;;
2944;SDS011;1482;51.398;7.128;2022-09-09T07:15:17;3.97;;;2.30;;
2944;SDS011;1482;51.398;7.128;2022-09-09T07:17:43;4.25;;;2.60;;
2944;SDS011;1482;51.398;7.128;2022-09-09T07:20:09;5.90;;;2.03;;
2944;SDS011;1482;51.398;7.128;2022-09-09T07:22:36;2.57;;;1.77;;
2944;SDS011;1482;51.398;7.128;2022-09-09T07:25:02;2.60;;;2.17;;
2944;SDS011;1482;51.398;7.128;2022-09-09T07:27:28;6.50;;;2.47;;
2944;SDS011;1482;51.398;7.128;2022-09-09T07:29:53;4.20;;;2.37;;
2944;SDS011;1482;51.398;7.128;2022-09-09T07:32:19;4.10;;;2.60;;
2944;SDS011;1482;51.398;7.128;2022-09-09T07:34:45;3.83;;;3.13;;
2944;SDS011;1482;51.398;7.128;2022-09-09T07:37:11;6.17;;;2.23;;
2944;SDS011;1482;51.398;7.128;2022-09-09T07:39:38;5.53;;;2.43;;
2944;SDS011;1482;51.398;7.128;2022-09-09T07:42:04;4.97;;;2.60;;
2944;SDS011;1482;51.398;7.128;2022-09-09T07:44:30;2.37;;;2.17;;
2944;SDS011;1482;51.398;7.128;2022-09-09T07:46:57;5.77;;;1.60;;
2944;SDS011;1482;51.398;7.128;2022-09-09T07:49:22;2.60;;;1.70;;
2944;SDS011;1482;51.398;7.128;2022-09-09T07:51:49;2.90;;;1.83;;
2944;SDS011;1482;51.398;7.128;2022-09-09T07:54:15;5.90;;;2.23;;
2944;SDS011;1482;51.398;7.128;2022-09-09T07:56:45;2.17;;;1.30;;
2944;SDS011;1482;51.398;7.128;2022-09-09T07:59:12;4.90;;;2.20;;
2944;SDS011;1482;51.398;7.128;2022-09-09T08:01:41;3.43;;;1.60;;
2944;SDS011;1482;51.398;7.128;2022-09-09T08:04:10;3.30;;;1.80;;
2944;SDS011;1482;51.398;7.128;2022-09-09T08:06:41;7.10;;;2.20;;
2944;SDS011;1482;51.398;7.128;2022-09-09T08:09:12;3.13;;;1.53;;
2944;SDS011;1482;51.398;7.128;2022-09-09T08:11:39;5.80;;;2.13;;
2944;SDS011;1482;51.398;7.128;2022-09-09T08:14:06;1.50;;;1.40;;
2944;SDS011;1482;51.398;7.128;2022-09-09T08:16:33;4.43;;;2.50;;
2944;SDS011;1482;51.398;7.128;2022-09-09T08:19:01;7.17;;;1.93;;
2944;SDS011;1482;51.398;7.128;2022-09-09T08:21:29;4.57;;;1.80;;
2944;SDS011;1482;51.398;7.128;2022-09-09T08:23:57;2.27;;;1.57;;
2944;SDS011;1482;51.398;7.128;2022-09-09T08:26:28;3.37;;;2.20;;
2944;SDS011;1482;51.398;7.128;2022-09-09T08:28:56;5.23;;;1.93;;
2944;SDS011;1482;51.398;7.128;2022-09-09T08:31:27;3.90;;;1.93;;
2944;SDS011;1482;51.398;7.128;2022-09-09T08:33:55;2.13;;;1.70;;
2944;SDS011;1482;51.398;7.128;2022-09-09T08:36:22;7.33;;;2.03;;
2944;SDS011;1482;51.398;7.128;2022-09-09T08:38:51;6.23;;;2.00;;
2944;SDS011;1482;51.398;7.128;2022-09-09T08:41:36;4.53;;;2.27;;
2944;SDS011;1482;51.398;7.128;2022-09-09T08:44:15;2.47;;;2.20;;
2944;SDS011;1482;51.398;7.128;2022-09-09T08:52:23;3.57;;;2.17;;
2944;SDS011;1482;51.398;7.128;2022-09-09T08:54:57;6.70;;;3.30;;
2944;SDS011;1482;51.398;7.128;2022-09-09T08:57:28;6.63;;;2.43;;
2944;SDS011;1482;51.398;7.128;2022-09-09T08:59:57;8.50;;;2.90;;
2944;SDS011;1482;51.398;7.128;2022-09-09T09:02:36;4.10;;;2.40;;
2944;SDS011;1482;51.398;7.128;2022-09-09T09:05:28;5.40;;;2.70;;
2944;SDS011;1482;51.398;7.128;2022-09-09T09:13:19;6.03;;;2.43;;
2944;SDS011;1482;51.398;7.128;2022-09-09T09:15:55;3.70;;;2.63;;
2944;SDS011;1482;51.398;7.128;2022-09-09T09:18:25;5.70;;;2.20;;
2944;SDS011;1482;51.398;7.128;2022-09-09T09:23:31;4.37;;;2.80;;
2944;SDS011;1482;51.398;7.128;2022-09-09T09:26:06;7.43;;;2.23;;
2944;SDS011;1482;51.398;7.128;2022-09-09T09:28:36;4.43;;;1.90;;
2944;SDS011;1482;51.398;7.128;2022-09-09T09:31:06;9.90;;;2.17;;
2944;SDS011;1482;51.398;7.128;2022-09-09T09:36:13;5.17;;;1.70;;
2944;SDS011;1482;51.398;7.128;2022-09-09T09:44:27;3.97;;;2.87;;
2944;SDS011;1482;51.398;7.128;2022-09-09T09:47:08;5.00;;;2.30;;
2944;SDS011;1482;51.398;7.128;2022-09-09T09:49:39;5.10;;;1.80;;
2944;SDS011;1482;51.398;7.128;2022-09-09T09:52:24;7.17;;;2.30;;
2944;SDS011;1482;51.398;7.128;2022-09-09T09:54:51;5.10;;;4.00;;
2944;SDS011;1482;51.398;7.128;2022-09-09T09:57:18;3.30;;;1.93;;
2944;SDS011;1482;51.398;7.128;2022-09-09T10:00:27;4.27;;;2.37;;
2944;SDS011;1482;51.398;7.128;2022-09-09T10:02:47;7.47;;;2.30;;
2944;SDS011;1482;51.398;7.128;2022-09-09T10:05:26;2.80;;;2.17;;
2944;SDS011;1482;51.398;7.128;2022-09-09T10:08:54;2.60;;;1.60;;
2944;SDS011;1482;51.398;7.128;2022-09-09T10:18:59;4.00;;;1.80;;
2944;SDS011;1482;51.398;7.128;2022-09-09T10:21:55;3.13;;;1.93;;
2944;SDS011;1482;51.398;7.128;2022-09-09T10:24:33;4.17;;;2.50;;
2944;SDS011;1482;51.398;7.128;2022-09-09T10:35:52;5.27;;;2.20;;
2944;SDS011;1482;51.398;7.128;2022-09-09T10:44:15;2.60;;;1.63;;
2944;SDS011;1482;51.398;7.128;2022-09-09T10:51:55;4.20;;;1.90;;
2944;SDS011;1482;51.398;7.128;2022-09-09T10:57:13;4.70;;;1.90;;
2944;SDS011;1482;51.398;7.128;2022-09-09T11:00:04;3.37;;;1.80;;
2944;SDS011;1482;51.398;7.128;2022-09-09T11:02:33;4.70;;;2.10;;
2944;SDS011;1482;51.398;7.128;2022-09-09T11:05:08;7.93;;;1.73;;
2944;SDS011;1482;51.398;7.128;2022-09-09T11:10:44;4.80;;;1.80;;
2944;SDS011;1482;51.398;7.128;2022-09-09T11:13:34;6.97;;;2.13;;
2944;SDS011;1482;51.398;7.128;2022-09-09T11:16:19;3.13;;;2.00;;
2944;SDS011;1482;51.398;7.128;2022-09-09T11:19:00;2.23;;;1.90;;
2944;SDS011;1482;51.398;7.128;2022-09-09T11:21:31;2.43;;;1.73;;
2944;SDS011;1482;51.398;7.128;2022-09-09T11:24:02;6.93;;;2.60;;
2944;SDS011;1482;51.398;7.128;2022-09-09T11:26:38;3.07;;;2.20;;
2944;SDS011;1482;51.398;7.128;2022-09-09T11:43:00;5.47;;;1.97;;
2944;SDS011;1482;51.398;7.128;2022-09-09T11:45:41;6.83;;;2.10;;
2944;SDS011;1482;51.398;7.128;2022-09-09T11:50:59;3.13;;;2.23;;
2944;SDS011;1482;51.398;7.128;2022-09-09T11:53:28;2.90;;;2.17;;
2944;SDS011;1482;51.398;7.128;2022-09-09T11:56:00;2.83;;;2.33;;
2944;SDS011;1482;51.398;7.128;2022-09-09T11:58:39;3.50;;;2.30;;
2944;SDS011;1482;51.398;7.128;2022-09-09T12:01:15;7.17;;;2.47;;
2944;SDS011;1482;51.398;7.128;2022-09-09T12:03:51;4.30;;;2.07;;
2944;SDS011;1482;51.398;7.128;2022-09-09T12:09:25;2.00;;;1.90;;
2944;SDS011;1482;51.398;7.128;2022-09-09T12:14:44;4.07;;;2.13;;
2944;SDS011;1482;51.398;7.128;2022-09-09T12:17:25;3.43;;;2.90;;
2944;SDS011;1482;51.398;7.128;2022-09-09T12:28:17;2.13;;;1.90;;
2944;SDS011;1482;51.398;7.128;2022-09-09T12:31:06;5.67;;;2.30;;
2944;SDS011;1482;51.398;7.128;2022-09-09T12:33:42;5.47;;;2.07;;
2944;SDS011;1482;51.398;7.128;2022-09-09T12:36:14;4.10;;;1.77;;
2944;SDS011;1482;51.398;7.128;2022-09-09T12:38:44;5.00;;;2.13;;
2944;SDS011;1482;51.398;7.128;2022-09-09T12:41:23;2.30;;;2.10;;
2944;SDS011;1482;51.398;7.128;2022-09-09T12:44:02;4.83;;;2.30;;
2944;SDS011;1482;51.398;7.128;2022-09-09T12:52:00;6.43;;;2.00;;
2944;SDS011;1482;51.398;7.128;2022-09-09T12:54:46;2.30;;;1.90;;
2944;SDS011;1482;51.398;7.128;2022-09-09T12:57:13;1.97;;;1.60;;
2944;SDS011;1482;51.398;7.128;2022-09-09T12:59:41;4.80;;;2.00;;
2944;SDS011;1482;51.398;7.128;2022-09-09T13:02:17;4.93;;;1.80;;
2944;SDS011;1482;51.398;7.128;2022-09-09T13:04:43;4.63;;;2.53;;
2944;SDS011;1482;51.398;7.128;2022-09-09T13:07:12;9.00;;;2.47;;
2944;SDS011;1482;51.398;7.128;2022-09-09T13:09:38;3.63;;;2.00;;
2944;SDS011;1482;51.398;7.128;2022-09-09T13:12:04;6.27;;;2.40;;
2944;SDS011;1482;51.398;7.128;2022-09-09T13:14:46;3.50;;;2.10;;
2944;SDS011;1482;51.398;7.128;2022-09-09T13:17:25;2.90;;;1.80;;
2944;SDS011;1482;51.398;7.128;2022-09-09T13:19:54;2.23;;;1.60;;
2944;SDS011;1482;51.398;7.128;2022-09-09T13:27:32;4.43;;;2.20;;
2944;SDS011;1482;51.398;7.128;2022-09-09T13:30:18;3.57;;;2.30;;
2944;SDS011;1482;51.398;7.128;2022-09-09T13:32:47;5.53;;;2.60;;
2944;SDS011;1482;51.398;7.128;2022-09-09T13:35:25;4.90;;;2.30;;
2944;SDS011;1482;51.398;7.128;2022-09-09T13:37:51;4.53;;;3.00;;
2944;SDS011;1482;51.398;7.128;2022-09-09T13:40:17;3.87;;;2.53;;
2944;SDS011;1482;51.398;7.128;2022-09-09T13:42:46;2.60;;;2.40;;
2944;SDS011;1482;51.398;7.128;2022-09-09T13:45:16;3.73;;;2.13;;
2944;SDS011;1482;51.398;7.128;2022-09-09T13:47:47;5.53;;;1.97;;
2944;SDS011;1482;51.398;7.128;2022-09-09T13:52:49;7.23;;;1.97;;
2944;SDS011;1482;51.398;7.128;2022-09-09T13:55:24;2.90;;;2.03;;
2944;SDS011;1482;51.398;7.128;2022-09-09T13:57:55;4.40;;;2.10;;
2944;SDS011;1482;51.398;7.128;2022-09-09T14:00:21;2.53;;;1.40;;
2944;SDS011;1482;51.398;7.128;2022-09-09T14:02:48;2.07;;;1.60;;
2944;SDS011;1482;51.398;7.128;2022-09-09T14:05:15;5.57;;;1.67;;
2944;SDS011;1482;51.398;7.128;2022-09-09T14:07:41;5.23;;;1.53;;
2944;SDS011;1482;51.398;7.128;2022-09-09T14:10:08;2.03;;;1.40;;
2944;SDS011;1482;51.398;7.128;2022-09-09T14:12:34;5.63;;;1.63;;
2944;SDS011;1482;51.398;7.128;2022-09-09T14:15:01;3.00;;;1.63;;
2944;SDS011;1482;51.398;7.128;2022-09-09T14:17:27;2.07;;;1.73;;
2944;SDS011;1482;51.398;7.128;2022-09-09T14:19:56;4.50;;;2.20;;
2944;SDS011;1482;51.398;7.128;2022-09-09T14:22:22;1.90;;;1.80;;
2944;SDS011;1482;51.398;7.128;2022-09-09T14:24:48;4.70;;;1.60;;
2944;SDS011;1482;51.398;7.128;2022-09-09T14:27:14;4.40;;;1.60;;
2944;SDS011;1482;51.398;7.128;2022-09-09T14:29:40;3.07;;;2.03;;
2944;SDS011;1482;51.398;7.128;2022-09-09T14:32:06;4.30;;;1.57;;
2944;SDS011;1482;51.398;7.128;2022-09-09T14:34:32;2.20;;;1.77;;
2944;SDS011;1482;51.398;7.128;2022-09-09T14:36:58;2.83;;;1.60;;
2944;SDS011;1482;51.398;7.128;2022-09-09T14:39:23;2.10;;;1.80;;
2944;SDS011;1482;51.398;7.128;2022-09-09T14:41:49;3.30;;;2.37;;
2944;SDS011;1482;51.398;7.128;2022-09-09T14:44:15;6.70;;;2.63;;
2944;SDS011;1482;51.398;7.128;2022-09-09T14:46:41;5.67;;;2.47;;
2944;SDS011;1482;51.398;7.128;2022-09-09T14:49:07;1.70;;;1.60;;
2944;SDS011;1482;51.398;7.128;2022-09-09T14:51:33;5.47;;;2.23;;
2944;SDS011;1482;51.398;7.128;2022-09-09T14:53:59;3.07;;;2.23;;
2944;SDS011;1482;51.398;7.128;2022-09-09T14:56:25;2.50;;;2.27;;
2944;SDS011;1482;51.398;7.128;2022-09-09T14:58:53;5.93;;;2.33;;
2944;SDS011;1482;51.398;7.128;2022-09-09T15:01:20;5.60;;;1.93;;
2944;SDS011;1482;51.398;7.128;2022-09-09T15:03:51;3.00;;;1.80;;
2944;SDS011;1482;51.398;7.128;2022-09-09T15:06:22;4.70;;;2.00;;
2944;SDS011;1482;51.398;7.128;2022-09-09T15:08:49;5.77;;;2.17;;
2944;SDS011;1482;51.398;7.128;2022-09-09T15:11:17;1.53;;;1.20;;
2944;SDS011;1482;51.398;7.128;2022-09-09T15:13:43;2.10;;;1.47;;
2944;SDS011;1482;51.398;7.128;2022-09-09T15:16:13;5.43;;;1.10;;
2944;SDS011;1482;51.398;7.128;2022-09-09T15:18:41;1.30;;;1.00;;
2944;SDS011;1482;51.398;7.128;2022-09-09T15:21:10;1.13;;;0.90;;
2944;SDS011;1482;51.398;7.128;2022-09-09T15:23:37;3.23;;;0.80;;
2944;SDS011;1482;51.398;7.128;2022-09-09T15:26:03;1.10;;;0.80;;
2944;SDS011;1482;51.398;7.128;2022-09-09T15:28:31;1.63;;;0.90;;
2944;SDS011;1482;51.398;7.128;2022-09-09T15:31:04;1.20;;;1.10;;
2944;SDS011;1482;51.398;7.128;2022-09-09T15:33:32;1.53;;;0.90;;
2944;SDS011;1482;51.398;7.128;2022-09-09T15:35:58;2.30;;;1.07;;
2944;SDS011;1482;51.398;7.128;2022-09-09T15:38:23;2.07;;;1.20;;
2944;SDS011;1482;51.398;7.128;2022-09-09T15:40:53;1.00;;;0.80;;
2944;SDS011;1482;51.398;7.128;2022-09-09T15:43:19;1.87;;;0.70;;
2944;SDS011;1482;51.398;7.128;2022-09-09T15:45:45;1.40;;;1.00;;
2944;SDS011;1482;51.398;7.128;2022-09-09T15:48:14;2.20;;;0.80;;
2944;SDS011;1482;51.398;7.128;2022-09-09T15:50:39;1.20;;;0.87;;
2944;SDS011;1482;51.398;7.128;2022-09-09T15:53:05;1.63;;;1.03;;
2944;SDS011;1482;51.398;7.128;2022-09-09T15:55:31;1.53;;;1.03;;
2944;SDS011;1482;51.398;7.128;2022-09-09T15:57:56;1.57;;;0.80;;
2944;SDS011;1482;51.398;7.128;2022-09-09T16:00:22;2.10;;;0.93;;
2944;SDS011;1482;51.398;7.128;2022-09-09T16:02:49;1.37;;;0.90;;
2944;SDS011;1482;51.398;7.128;2022-09-09T16:05:15;1.47;;;1.10;;
2944;SDS011;1482;51.398;7.128;2022-09-09T16:07:41;1.13;;;1.00;;
2944;SDS011;1482;51.398;7.128;2022-09-09T16:10:07;4.50;;;1.07;;
2944;SDS011;1482;51.398;7.128;2022-09-09T16:12:33;2.17;;;1.00;;
2944;SDS011;1482;51.398;7.128;2022-09-09T16:14:59;3.37;;;1.20;;
2944;SDS011;1482;51.398;7.128;2022-09-09T16:17:25;2.90;;;1.53;;
2944;SDS011;1482;51.398;7.128;2022-09-09T16:19:50;2.70;;;1.30;;
2944;SDS011;1482;51.398;7.128;2022-09-09T16:22:16;1.50;;;1.10;;
2944;SDS011;1482;51.398;7.128;2022-09-09T16:24:42;4.30;;;1.27;;
2944;SDS011;1482;51.398;7.128;2022-09-09T16:27:10;1.73;;;1.00;;
2944;SDS011;1482;51.398;7.128;2022-09-09T16:29:36;1.53;;;1.10;;
2944;SDS011;1482;51.398;7.128;2022-09-09T16:32:01;1.97;;;1.10;;
2944;SDS011;1482;51.398;7.128;2022-09-09T16:34:27;2.33;;;1.30;;
2944;SDS011;1482;51.398;7.128;2022-09-09T16:36:53;3.13;;;1.30;;
2944;SDS011;1482;51.398;7.128;2022-09-09T16:39:20;1.97;;;1.00;;
2944;SDS011;1482;51.398;7.128;2022-09-09T16:41:46;1.80;;;1.40;;
2944;SDS011;1482;51.398;7.128;2022-09-09T16:44:14;2.87;;;1.40;;
2944;SDS011;1482;51.398;7.128;2022-09-09T16:46:43;1.90;;;1.80;;
2944;SDS011;1482;51.398;7.128;2022-09-09T16:49:11;3.33;;;2.10;;
2944;SDS011;1482;51.398;7.128;2022-09-09T16:51:39;5.03;;;1.67;;
2944;SDS011;1482;51.398;7.128;2022-09-09T16:54:07;2.70;;;1.80;;
2944;SDS011;1482;51.398;7.128;2022-09-09T16:56:34;4.20;;;1.90;;
2944;SDS011;1482;51.398;7.128;2022-09-09T16:59:03;3.53;;;1.93;;
2944;SDS011;1482;51.398;7.128;2022-09-09T17:01:31;3.37;;;2.00;;
2944;SDS011;1482;51.398;7.128;2022-09-09T17:04:01;2.93;;;1.93;;
2944;SDS011;1482;51.398;7.128;2022-09-09T17:06:28;4.77;;;1.63;;
2944;SDS011;1482;51.398;7.128;2022-09-09T17:08:55;3.37;;;2.50;;
2944;SDS011;1482;51.398;7.128;2022-09-09T17:11:22;1.50;;;1.40;;
2944;SDS011;1482;51.398;7.128;2022-09-09T17:13:48;4.60;;;2.00;;
2944;SDS011;1482;51.398;7.128;2022-09-09T17:16:15;4.83;;;1.80;;
2944;SDS011;1482;51.398;7.128;2022-09-09T17:18:41;3.43;;;1.87;;
2944;SDS011;1482;51.398;7.128;2022-09-09T17:21:08;3.03;;;2.07;;
2944;SDS011;1482;51.398;7.128;2022-09-09T17:23:37;3.47;;;2.13;;
2944;SDS011;1482;51.398;7.128;2022-09-09T17:26:03;2.30;;;2.03;;
2944;SDS011;1482;51.398;7.128;2022-09-09T17:28:30;3.30;;;2.13;;
2944;SDS011;1482;51.398;7.128;2022-09-09T17:30:59;2.50;;;2.33;;
2944;SDS011;1482;51.398;7.128;2022-09-09T17:33:29;4.53;;;2.80;;
2944;SDS011;1482;51.398;7.128;2022-09-09T17:35:56;7.17;;;2.30;;
2944;SDS011;1482;51.398;7.128;2022-09-09T17:38:33;3.80;;;2.10;;
2944;SDS011;1482;51.398;7.128;2022-09-09T17:41:41;6.23;;;3.70;;
2944;SDS011;1482;51.398;7.128;2022-09-09T17:43:52;5.03;;;2.07;;
2944;SDS011;1482;51.398;7.128;2022-09-09T17:48:49;4.60;;;2.17;;
2944;SDS011;1482;51.398;7.128;2022-09-09T17:51:18;7.10;;;2.47;;
2944;SDS011;1482;51.398;7.128;2022-09-09T17:53:49;3.80;;;2.10;;
2944;SDS011;1482;51.398;7.128;2022-09-09T17:56:17;5.03;;;2.20;;